sensor_id;sensor_type;location;lat;lon;timestamp;temperature;humidity
33269;DHT22;19640;50.944;5.260;2022-10-17T00:01:08;14.00;99.90
33269;DHT22;19640;50.944;5.260;2022-10-17T00:03:35;13.90;99.90
33269;DHT22;19640;50.944;5.260;2022-10-17T00:06:10;13.80;99.90
33269;DHT22;19640;50.944;5.260;2022-10-17T00:08:36;13.80;99.90
33269;DHT22;19640;50.944;5.260;2022-10-17T00:11:05;13.70;99.90
33269;DHT22;19640;50.944;5.260;2022-10-17T00:13:31;13.80;99.90
33269;DHT22;19640;50.944;5.260;2022-10-17T00:15:57;13.70;99.90
33269;DHT22;19640;50.944;5.260;2022-10-17T00:18:23;13.70;99.90
33269;DHT22;19640;50.944;5.260;2022-10-17T00:20:49;13.70;99.90
33269;DHT22;19640;50.944;5.260;2022-10-17T00:23:15;13.70;99.90
33269;DHT22;19640;50.944;5.260;2022-10-17T00:25:40;13.50;99.90
33269;DHT22;19640;50.944;5.260;2022-10-17T00:28:13;13.70;99.90
33269;DHT22;19640;50.944;5.260;2022-10-17T00:30:39;13.70;99.90
33269;DHT22;19640;50.944;5.260;2022-10-17T00:33:05;13.80;99.90
33269;DHT22;19640;50.944;5.260;2022-10-17T00:35:31;13.60;99.90
33269;DHT22;19640;50.944;5.260;2022-10-17T00:37:57;13.60;99.90
33269;DHT22;19640;50.944;5.260;2022-10-17T00:40:23;13.70;99.90
33269;DHT22;19640;50.944;5.260;2022-10-17T00:42:49;13.70;99.90
33269;DHT22;19640;50.944;5.260;2022-10-17T00:45:28;13.70;99.90
33269;DHT22;19640;50.944;5.260;2022-10-17T00:47:58;13.60;99.90
33269;DHT22;19640;50.944;5.260;2022-10-17T00:50:26;13.50;99.90
33269;DHT22;19640;50.944;5.260;2022-10-17T00:52:53;13.50;99.90
33269;DHT22;19640;50.944;5.260;2022-10-17T00:55:23;13.60;99.90
33269;DHT22;19640;50.944;5.260;2022-10-17T00:57:50;13.70;99.90
33269;DHT22;19640;50.944;5.260;2022-10-17T01:00:17;13.70;99.90
33269;DHT22;19640;50.944;5.260;2022-10-17T01:02:44;13.80;99.90
33269;DHT22;19640;50.944;5.260;2022-10-17T01:05:09;13.80;99.90
33269;DHT22;19640;50.944;5.260;2022-10-17T01:07:37;13.90;99.90
33269;DHT22;19640;50.944;5.260;2022-10-17T01:10:04;13.80;99.90
33269;DHT22;19640;50.944;5.260;2022-10-17T01:12:43;13.70;99.90
33269;DHT22;19640;50.944;5.260;2022-10-17T01:15:33;13.80;99.90
33269;DHT22;19640;50.944;5.260;2022-10-17T01:21:29;13.70;99.90
33269;DHT22;19640;50.944;5.260;2022-10-17T01:24:02;13.80;99.90
33269;DHT22;19640;50.944;5.260;2022-10-17T01:31:57;14.00;99.90
33269;DHT22;19640;50.944;5.260;2022-10-17T01:37:04;14.00;99.90
33269;DHT22;19640;50.944;5.260;2022-10-17T01:39:48;14.00;99.90
33269;DHT22;19640;50.944;5.260;2022-10-17T01:42:25;13.90;99.90
33269;DHT22;19640;50.944;5.260;2022-10-17T01:44:59;13.90;99.90
33269;DHT22;19640;50.944;5.260;2022-10-17T01:47:28;13.90;99.90
33269;DHT22;19640;50.944;5.260;2022-10-17T01:49:58;14.00;99.90
33269;DHT22;19640;50.944;5.260;2022-10-17T01:52:42;14.20;99.90
33269;DHT22;19640;50.944;5.260;2022-10-17T01:55:39;14.30;99.90
33269;DHT22;19640;50.944;5.260;2022-10-17T02:00:38;14.50;99.90
33269;DHT22;19640;50.944;5.260;2022-10-17T02:03:08;14.40;99.90
33269;DHT22;19640;50.944;5.260;2022-10-17T02:05:40;14.70;99.90
33269;DHT22;19640;50.944;5.260;2022-10-17T02:08:06;14.80;99.90
33269;DHT22;19640;50.944;5.260;2022-10-17T02:10:57;15.00;99.90
33269;DHT22;19640;50.944;5.260;2022-10-17T02:16:26;15.00;99.90
33269;DHT22;19640;50.944;5.260;2022-10-17T02:24:34;15.10;99.90
33269;DHT22;19640;50.944;5.260;2022-10-17T02:27:21;15.10;99.90
33269;DHT22;19640;50.944;5.260;2022-10-17T02:30:43;15.10;99.90
33269;DHT22;19640;50.944;5.260;2022-10-17T02:33:15;15.30;99.90
33269;DHT22;19640;50.944;5.260;2022-10-17T02:35:47;15.30;99.90
33269;DHT22;19640;50.944;5.260;2022-10-17T02:38:15;15.40;99.90
33269;DHT22;19640;50.944;5.260;2022-10-17T02:40:43;15.20;99.90
33269;DHT22;19640;50.944;5.260;2022-10-17T02:43:11;15.20;99.90
33269;DHT22;19640;50.944;5.260;2022-10-17T02:45:38;15.10;99.90
33269;DHT22;19640;50.944;5.260;2022-10-17T02:53:33;15.50;99.90
33269;DHT22;19640;50.944;5.260;2022-10-17T02:56:05;15.80;99.90
33269;DHT22;19640;50.944;5.260;2022-10-17T02:58:33;15.80;99.90
33269;DHT22;19640;50.944;5.260;2022-10-17T03:01:00;15.70;99.90
33269;DHT22;19640;50.944;5.260;2022-10-17T03:03:30;15.90;99.90
33269;DHT22;19640;50.944;5.260;2022-10-17T03:05:56;15.80;99.90
33269;DHT22;19640;50.944;5.260;2022-10-17T03:08:22;15.80;99.90
33269;DHT22;19640;50.944;5.260;2022-10-17T03:10:49;15.70;99.90
33269;DHT22;19640;50.944;5.260;2022-10-17T03:13:15;15.60;99.90
33269;DHT22;19640;50.944;5.260;2022-10-17T03:15:40;15.50;99.90
33269;DHT22;19640;50.944;5.260;2022-10-17T03:18:06;15.40;99.90
33269;DHT22;19640;50.944;5.260;2022-10-17T03:20:32;15.30;99.90
33269;DHT22;19640;50.944;5.260;2022-10-17T03:22:58;15.40;99.90
33269;DHT22;19640;50.944;5.260;2022-10-17T03:25:23;15.40;99.90
33269;DHT22;19640;50.944;5.260;2022-10-17T03:27:50;15.30;99.90
33269;DHT22;19640;50.944;5.260;2022-10-17T03:30:15;15.30;99.90
33269;DHT22;19640;50.944;5.260;2022-10-17T03:32:41;15.20;99.90
33269;DHT22;19640;50.944;5.260;2022-10-17T03:35:07;15.30;99.90
33269;DHT22;19640;50.944;5.260;2022-10-17T03:37:32;15.40;99.90
33269;DHT22;19640;50.944;5.260;2022-10-17T03:39:58;15.60;99.90
33269;DHT22;19640;50.944;5.260;2022-10-17T03:42:23;15.80;99.90
33269;DHT22;19640;50.944;5.260;2022-10-17T03:44:49;15.90;99.90
33269;DHT22;19640;50.944;5.260;2022-10-17T03:47:15;15.90;99.90
33269;DHT22;19640;50.944;5.260;2022-10-17T03:49:40;15.70;99.90
33269;DHT22;19640;50.944;5.260;2022-10-17T03:52:10;15.60;99.90
33269;DHT22;19640;50.944;5.260;2022-10-17T03:54:36;15.70;99.90
33269;DHT22;19640;50.944;5.260;2022-10-17T03:57:02;15.60;99.90
33269;DHT22;19640;50.944;5.260;2022-10-17T03:59:28;15.50;99.90
33269;DHT22;19640;50.944;5.260;2022-10-17T04:01:53;15.60;99.90
33269;DHT22;19640;50.944;5.260;2022-10-17T04:04:20;15.60;99.90
33269;DHT22;19640;50.944;5.260;2022-10-17T04:06:45;15.60;99.90
33269;DHT22;19640;50.944;5.260;2022-10-17T04:09:11;15.60;99.90
33269;DHT22;19640;50.944;5.260;2022-10-17T04:11:37;15.60;99.90
33269;DHT22;19640;50.944;5.260;2022-10-17T04:14:03;15.60;99.90
33269;DHT22;19640;50.944;5.260;2022-10-17T04:16:28;15.70;99.90
33269;DHT22;19640;50.944;5.260;2022-10-17T04:18:56;15.70;99.90
33269;DHT22;19640;50.944;5.260;2022-10-17T04:21:23;15.70;99.90
33269;DHT22;19640;50.944;5.260;2022-10-17T04:23:57;15.70;99.90
33269;DHT22;19640;50.944;5.260;2022-10-17T04:26:23;15.60;99.90
33269;DHT22;19640;50.944;5.260;2022-10-17T04:28:50;15.50;99.90
33269;DHT22;19640;50.944;5.260;2022-10-17T04:31:15;15.60;99.90
33269;DHT22;19640;50.944;5.260;2022-10-17T04:33:41;15.60;99.90
33269;DHT22;19640;50.944;5.260;2022-10-17T04:36:12;15.40;99.90
33269;DHT22;19640;50.944;5.260;2022-10-17T04:38:38;15.40;99.90
33269;DHT22;19640;50.944;5.260;2022-10-17T04:41:07;15.50;99.90
33269;DHT22;19640;50.944;5.260;2022-10-17T04:43:35;15.50;99.90
33269;DHT22;19640;50.944;5.260;2022-10-17T04:46:04;15.40;99.90
33269;DHT22;19640;50.944;5.260;2022-10-17T04:48:30;15.60;99.90
33269;DHT22;19640;50.944;5.260;2022-10-17T04:50:58;15.60;99.90
33269;DHT22;19640;50.944;5.260;2022-10-17T04:53:24;15.70;99.90
33269;DHT22;19640;50.944;5.260;2022-10-17T04:55:51;15.80;99.90
33269;DHT22;19640;50.944;5.260;2022-10-17T04:58:17;15.90;99.90
33269;DHT22;19640;50.944;5.260;2022-10-17T05:00:43;16.00;99.90
33269;DHT22;19640;50.944;5.260;2022-10-17T05:03:09;16.10;99.90
33269;DHT22;19640;50.944;5.260;2022-10-17T05:05:39;16.10;99.90
33269;DHT22;19640;50.944;5.260;2022-10-17T05:08:05;16.20;99.90
33269;DHT22;19640;50.944;5.260;2022-10-17T05:10:44;16.30;99.90
33269;DHT22;19640;50.944;5.260;2022-10-17T05:13:13;16.40;99.90
33269;DHT22;19640;50.944;5.260;2022-10-17T05:15:38;16.30;99.90
33269;DHT22;19640;50.944;5.260;2022-10-17T05:18:05;16.40;99.90
33269;DHT22;19640;50.944;5.260;2022-10-17T05:20:31;16.50;99.90
33269;DHT22;19640;50.944;5.260;2022-10-17T05:22:58;16.60;99.90
33269;DHT22;19640;50.944;5.260;2022-10-17T05:25:24;16.70;99.90
33269;DHT22;19640;50.944;5.260;2022-10-17T05:27:49;16.80;99.90
33269;DHT22;19640;50.944;5.260;2022-10-17T05:30:16;16.80;99.90
33269;DHT22;19640;50.944;5.260;2022-10-17T05:32:41;16.70;99.90
33269;DHT22;19640;50.944;5.260;2022-10-17T05:35:07;16.70;99.90
33269;DHT22;19640;50.944;5.260;2022-10-17T05:37:33;16.80;99.90
33269;DHT22;19640;50.944;5.260;2022-10-17T05:39:58;16.90;99.90
33269;DHT22;19640;50.944;5.260;2022-10-17T05:42:24;16.90;99.90
33269;DHT22;19640;50.944;5.260;2022-10-17T05:44:50;16.90;99.90
33269;DHT22;19640;50.944;5.260;2022-10-17T05:47:15;16.90;99.90
33269;DHT22;19640;50.944;5.260;2022-10-17T05:49:41;17.00;99.90
33269;DHT22;19640;50.944;5.260;2022-10-17T05:52:06;17.10;99.90
33269;DHT22;19640;50.944;5.260;2022-10-17T05:54:32;17.00;99.90
33269;DHT22;19640;50.944;5.260;2022-10-17T05:56:58;17.10;99.90
33269;DHT22;19640;50.944;5.260;2022-10-17T05:59:24;17.10;99.90
33269;DHT22;19640;50.944;5.260;2022-10-17T06:01:51;17.00;99.90
33269;DHT22;19640;50.944;5.260;2022-10-17T06:04:17;17.10;99.90
33269;DHT22;19640;50.944;5.260;2022-10-17T06:06:42;17.00;99.90
33269;DHT22;19640;50.944;5.260;2022-10-17T06:09:08;17.10;99.90
33269;DHT22;19640;50.944;5.260;2022-10-17T06:11:34;17.30;99.90
33269;DHT22;19640;50.944;5.260;2022-10-17T06:14:01;17.20;99.90
33269;DHT22;19640;50.944;5.260;2022-10-17T06:16:27;17.10;99.90
33269;DHT22;19640;50.944;5.260;2022-10-17T06:18:52;17.20;99.90
33269;DHT22;19640;50.944;5.260;2022-10-17T06:21:22;17.20;99.90
33269;DHT22;19640;50.944;5.260;2022-10-17T06:23:48;17.10;99.90
33269;DHT22;19640;50.944;5.260;2022-10-17T06:26:14;17.10;99.90
33269;DHT22;19640;50.944;5.260;2022-10-17T06:28:39;17.10;99.90
33269;DHT22;19640;50.944;5.260;2022-10-17T06:31:11;17.00;99.90
33269;DHT22;19640;50.944;5.260;2022-10-17T06:33:37;17.00;99.90
33269;DHT22;19640;50.944;5.260;2022-10-17T06:36:04;17.00;99.90
33269;DHT22;19640;50.944;5.260;2022-10-17T06:38:30;16.90;99.90
33269;DHT22;19640;50.944;5.260;2022-10-17T06:41:11;16.90;99.90
33269;DHT22;19640;50.944;5.260;2022-10-17T06:43:42;16.90;99.90
33269;DHT22;19640;50.944;5.260;2022-10-17T06:46:10;17.00;99.90
33269;DHT22;19640;50.944;5.260;2022-10-17T06:48:36;17.10;99.90
33269;DHT22;19640;50.944;5.260;2022-10-17T06:51:04;17.20;99.90
33269;DHT22;19640;50.944;5.260;2022-10-17T06:53:32;17.20;99.90
33269;DHT22;19640;50.944;5.260;2022-10-17T06:55:59;17.30;99.90
33269;DHT22;19640;50.944;5.260;2022-10-17T06:58:30;17.40;99.90
33269;DHT22;19640;50.944;5.260;2022-10-17T07:01:07;17.30;99.90
33269;DHT22;19640;50.944;5.260;2022-10-17T07:03:33;17.40;99.90
33269;DHT22;19640;50.944;5.260;2022-10-17T07:05:59;17.40;99.90
33269;DHT22;19640;50.944;5.260;2022-10-17T07:08:25;17.50;99.90
33269;DHT22;19640;50.944;5.260;2022-10-17T07:10:51;17.50;99.90
33269;DHT22;19640;50.944;5.260;2022-10-17T07:13:18;17.60;99.90
33269;DHT22;19640;50.944;5.260;2022-10-17T07:15:44;17.70;99.90
33269;DHT22;19640;50.944;5.260;2022-10-17T07:18:10;17.80;99.90
33269;DHT22;19640;50.944;5.260;2022-10-17T07:20:36;18.00;99.90
33269;DHT22;19640;50.944;5.260;2022-10-17T07:23:01;18.00;99.90
33269;DHT22;19640;50.944;5.260;2022-10-17T07:25:27;18.10;99.90
33269;DHT22;19640;50.944;5.260;2022-10-17T07:27:53;18.10;99.90
33269;DHT22;19640;50.944;5.260;2022-10-17T07:30:19;18.20;99.90
33269;DHT22;19640;50.944;5.260;2022-10-17T07:32:45;18.30;99.90
33269;DHT22;19640;50.944;5.260;2022-10-17T07:35:11;18.40;99.90
33269;DHT22;19640;50.944;5.260;2022-10-17T07:37:37;18.40;99.90
33269;DHT22;19640;50.944;5.260;2022-10-17T07:40:04;18.50;99.90
33269;DHT22;19640;50.944;5.260;2022-10-17T07:42:31;18.50;99.90
33269;DHT22;19640;50.944;5.260;2022-10-17T07:44:57;18.60;99.90
33269;DHT22;19640;50.944;5.260;2022-10-17T07:47:23;18.60;99.90
33269;DHT22;19640;50.944;5.260;2022-10-17T07:49:48;18.50;99.90
33269;DHT22;19640;50.944;5.260;2022-10-17T07:52:15;18.50;99.90
33269;DHT22;19640;50.944;5.260;2022-10-17T07:54:41;18.60;99.90
33269;DHT22;19640;50.944;5.260;2022-10-17T07:57:07;18.40;99.90
33269;DHT22;19640;50.944;5.260;2022-10-17T07:59:34;18.50;99.90
33269;DHT22;19640;50.944;5.260;2022-10-17T08:02:00;18.60;99.90
33269;DHT22;19640;50.944;5.260;2022-10-17T08:04:26;18.50;99.90
33269;DHT22;19640;50.944;5.260;2022-10-17T08:06:52;18.50;99.90
33269;DHT22;19640;50.944;5.260;2022-10-17T08:09:18;18.50;99.90
33269;DHT22;19640;50.944;5.260;2022-10-17T08:11:44;18.50;99.90
33269;DHT22;19640;50.944;5.260;2022-10-17T08:14:10;18.50;99.90
33269;DHT22;19640;50.944;5.260;2022-10-17T08:16:36;18.40;99.90
33269;DHT22;19640;50.944;5.260;2022-10-17T08:19:02;18.50;99.90
33269;DHT22;19640;50.944;5.260;2022-10-17T08:21:29;18.60;99.90
33269;DHT22;19640;50.944;5.260;2022-10-17T08:23:54;18.70;99.90
33269;DHT22;19640;50.944;5.260;2022-10-17T08:26:21;18.90;99.90
33269;DHT22;19640;50.944;5.260;2022-10-17T08:28:47;18.90;99.90
33269;DHT22;19640;50.944;5.260;2022-10-17T08:31:16;18.90;99.90
33269;DHT22;19640;50.944;5.260;2022-10-17T08:33:46;18.90;99.90
33269;DHT22;19640;50.944;5.260;2022-10-17T08:36:14;18.80;99.90
33269;DHT22;19640;50.944;5.260;2022-10-17T08:38:40;19.00;99.90
33269;DHT22;19640;50.944;5.260;2022-10-17T08:41:39;18.90;99.90
33269;DHT22;19640;50.944;5.260;2022-10-17T08:46:46;19.00;99.90
33269;DHT22;19640;50.944;5.260;2022-10-17T08:49:28;19.00;99.90
33269;DHT22;19640;50.944;5.260;2022-10-17T08:52:05;18.90;99.90
33269;DHT22;19640;50.944;5.260;2022-10-17T08:54:45;18.90;99.90
33269;DHT22;19640;50.944;5.260;2022-10-17T08:57:16;18.80;99.90
33269;DHT22;19640;50.944;5.260;2022-10-17T08:59:43;18.80;99.90
33269;DHT22;19640;50.944;5.260;2022-10-17T09:10:32;18.70;99.90
33269;DHT22;19640;50.944;5.260;2022-10-17T09:18:26;18.90;99.90
33269;DHT22;19640;50.944;5.260;2022-10-17T09:21:00;18.70;99.90
33269;DHT22;19640;50.944;5.260;2022-10-17T09:23:34;18.60;99.90
33269;DHT22;19640;50.944;5.260;2022-10-17T09:26:01;18.40;99.90
33269;DHT22;19640;50.944;5.260;2022-10-17T09:31:04;18.70;99.90
33269;DHT22;19640;50.944;5.260;2022-10-17T09:33:46;18.90;99.90
33269;DHT22;19640;50.944;5.260;2022-10-17T09:36:21;18.30;99.90
33269;DHT22;19640;50.944;5.260;2022-10-17T09:39:01;18.30;99.90
33269;DHT22;19640;50.944;5.260;2022-10-17T09:43:56;18.70;99.90
33269;DHT22;19640;50.944;5.260;2022-10-17T09:46:35;18.70;99.90
33269;DHT22;19640;50.944;5.260;2022-10-17T09:49:11;18.30;99.90
33269;DHT22;19640;50.944;5.260;2022-10-17T09:51:39;18.00;99.90
33269;DHT22;19640;50.944;5.260;2022-10-17T09:54:15;18.10;99.90
33269;DHT22;19640;50.944;5.260;2022-10-17T09:56:59;18.20;99.90
33269;DHT22;19640;50.944;5.260;2022-10-17T09:59:39;18.30;99.90
33269;DHT22;19640;50.944;5.260;2022-10-17T10:02:16;18.20;99.90
33269;DHT22;19640;50.944;5.260;2022-10-17T10:07:29;18.30;99.90
33269;DHT22;19640;50.944;5.260;2022-10-17T10:09:55;18.40;99.90
33269;DHT22;19640;50.944;5.260;2022-10-17T10:12:34;18.10;99.90
33269;DHT22;19640;50.944;5.260;2022-10-17T10:15:00;18.10;99.90
33269;DHT22;19640;50.944;5.260;2022-10-17T10:17:38;18.30;99.90
33269;DHT22;19640;50.944;5.260;2022-10-17T10:20:36;18.50;99.90
33269;DHT22;19640;50.944;5.260;2022-10-17T10:23:16;18.70;99.90
33269;DHT22;19640;50.944;5.260;2022-10-17T10:25:54;18.90;99.90
33269;DHT22;19640;50.944;5.260;2022-10-17T10:28:24;19.10;99.90
33269;DHT22;19640;50.944;5.260;2022-10-17T10:30:51;19.00;99.90
33269;DHT22;19640;50.944;5.260;2022-10-17T10:33:20;18.70;99.90
33269;DHT22;19640;50.944;5.260;2022-10-17T10:36:02;18.90;99.90
33269;DHT22;19640;50.944;5.260;2022-10-17T10:38:29;18.70;99.90
33269;DHT22;19640;50.944;5.260;2022-10-17T10:41:03;18.80;99.90
33269;DHT22;19640;50.944;5.260;2022-10-17T10:43:48;18.80;99.90
33269;DHT22;19640;50.944;5.260;2022-10-17T10:46:23;18.90;99.90
33269;DHT22;19640;50.944;5.260;2022-10-17T10:49:00;19.10;99.90
33269;DHT22;19640;50.944;5.260;2022-10-17T10:51:32;19.10;99.90
33269;DHT22;19640;50.944;5.260;2022-10-17T10:54:13;19.10;99.90
33269;DHT22;19640;50.944;5.260;2022-10-17T10:56:45;19.10;99.90
33269;DHT22;19640;50.944;5.260;2022-10-17T10:59:19;19.20;99.90
33269;DHT22;19640;50.944;5.260;2022-10-17T11:02:16;19.30;99.90
33269;DHT22;19640;50.944;5.260;2022-10-17T11:04:51;19.30;99.90
33269;DHT22;19640;50.944;5.260;2022-10-17T11:07:40;19.40;99.90
33269;DHT22;19640;50.944;5.260;2022-10-17T11:10:13;19.40;99.90
33269;DHT22;19640;50.944;5.260;2022-10-17T11:12:56;19.50;99.90
33269;DHT22;19640;50.944;5.260;2022-10-17T11:15:46;19.50;99.90
33269;DHT22;19640;50.944;5.260;2022-10-17T11:18:28;19.70;99.90
33269;DHT22;19640;50.944;5.260;2022-10-17T11:21:15;19.50;99.90
33269;DHT22;19640;50.944;5.260;2022-10-17T11:23:47;19.50;99.90
33269;DHT22;19640;50.944;5.260;2022-10-17T11:26:20;19.50;99.90
33269;DHT22;19640;50.944;5.260;2022-10-17T11:28:52;19.70;99.90
33269;DHT22;19640;50.944;5.260;2022-10-17T11:31:20;19.70;99.90
33269;DHT22;19640;50.944;5.260;2022-10-17T11:36:17;19.90;99.90
33269;DHT22;19640;50.944;5.260;2022-10-17T11:41:23;19.70;99.90
33269;DHT22;19640;50.944;5.260;2022-10-17T11:43:58;19.60;99.90
33269;DHT22;19640;50.944;5.260;2022-10-17T11:46:28;19.60;99.90
33269;DHT22;19640;50.944;5.260;2022-10-17T11:49:17;19.60;99.90
33269;DHT22;19640;50.944;5.260;2022-10-17T11:51:53;19.70;99.90
33269;DHT22;19640;50.944;5.260;2022-10-17T11:54:33;19.60;99.90
33269;DHT22;19640;50.944;5.260;2022-10-17T12:00:02;19.50;99.90
33269;DHT22;19640;50.944;5.260;2022-10-17T12:02:44;19.60;99.90
33269;DHT22;19640;50.944;5.260;2022-10-17T12:05:24;19.70;99.90
33269;DHT22;19640;50.944;5.260;2022-10-17T12:11:22;19.60;99.90
33269;DHT22;19640;50.944;5.260;2022-10-17T12:13:45;19.50;99.90
33269;DHT22;19640;50.944;5.260;2022-10-17T12:18:51;19.50;99.90
33269;DHT22;19640;50.944;5.260;2022-10-17T12:22:01;19.50;99.90
33269;DHT22;19640;50.944;5.260;2022-10-17T12:24:40;19.40;99.90
33269;DHT22;19640;50.944;5.260;2022-10-17T12:32:55;19.10;99.90
33269;DHT22;19640;50.944;5.260;2022-10-17T12:35:22;19.10;99.90
33269;DHT22;19640;50.944;5.260;2022-10-17T12:45:55;19.10;99.90
33269;DHT22;19640;50.944;5.260;2022-10-17T12:51:10;19.00;99.90
33269;DHT22;19640;50.944;5.260;2022-10-17T12:56:12;19.00;99.90
33269;DHT22;19640;50.944;5.260;2022-10-17T12:58:43;18.90;99.90
33269;DHT22;19640;50.944;5.260;2022-10-17T13:01:17;18.90;99.90
33269;DHT22;19640;50.944;5.260;2022-10-17T13:03:46;18.80;99.90
33269;DHT22;19640;50.944;5.260;2022-10-17T13:06:20;18.90;99.90
33269;DHT22;19640;50.944;5.260;2022-10-17T13:08:53;18.80;99.90
33269;DHT22;19640;50.944;5.260;2022-10-17T13:11:26;18.90;99.90
33269;DHT22;19640;50.944;5.260;2022-10-17T13:13:56;18.80;99.90
33269;DHT22;19640;50.944;5.260;2022-10-17T13:16:33;18.90;99.90
33269;DHT22;19640;50.944;5.260;2022-10-17T13:19:01;18.90;99.90
33269;DHT22;19640;50.944;5.260;2022-10-17T13:21:27;18.80;99.90
33269;DHT22;19640;50.944;5.260;2022-10-17T13:23:53;18.90;99.90
33269;DHT22;19640;50.944;5.260;2022-10-17T13:26:27;18.90;99.90
33269;DHT22;19640;50.944;5.260;2022-10-17T13:29:04;18.90;99.90
33269;DHT22;19640;50.944;5.260;2022-10-17T13:31:36;18.90;99.90
33269;DHT22;19640;50.944;5.260;2022-10-17T13:34:04;18.80;99.90
33269;DHT22;19640;50.944;5.260;2022-10-17T13:36:32;18.80;99.90
33269;DHT22;19640;50.944;5.260;2022-10-17T13:39:03;18.80;99.90
33269;DHT22;19640;50.944;5.260;2022-10-17T13:41:31;18.80;99.90
33269;DHT22;19640;50.944;5.260;2022-10-17T13:43:59;18.70;99.90
33269;DHT22;19640;50.944;5.260;2022-10-17T13:46:31;18.80;99.90
33269;DHT22;19640;50.944;5.260;2022-10-17T13:48:58;18.80;99.90
33269;DHT22;19640;50.944;5.260;2022-10-17T13:51:26;18.80;99.90
33269;DHT22;19640;50.944;5.260;2022-10-17T13:53:52;19.00;99.90
33269;DHT22;19640;50.944;5.260;2022-10-17T13:56:23;19.00;99.90
33269;DHT22;19640;50.944;5.260;2022-10-17T13:58:53;19.00;99.90
33269;DHT22;19640;50.944;5.260;2022-10-17T14:01:22;19.00;99.90
33269;DHT22;19640;50.944;5.260;2022-10-17T14:03:49;19.00;99.90
33269;DHT22;19640;50.944;5.260;2022-10-17T14:11:26;18.80;99.90
33269;DHT22;19640;50.944;5.260;2022-10-17T14:13:55;19.00;99.90
33269;DHT22;19640;50.944;5.260;2022-10-17T14:16:22;19.00;99.90
33269;DHT22;19640;50.944;5.260;2022-10-17T14:18:50;18.90;99.90
33269;DHT22;19640;50.944;5.260;2022-10-17T14:21:24;18.90;99.90
33269;DHT22;19640;50.944;5.260;2022-10-17T14:24:13;19.10;99.90
33269;DHT22;19640;50.944;5.260;2022-10-17T14:26:50;19.10;99.90
33269;DHT22;19640;50.944;5.260;2022-10-17T14:29:31;18.90;99.90
33269;DHT22;19640;50.944;5.260;2022-10-17T14:32:00;19.00;99.90
33269;DHT22;19640;50.944;5.260;2022-10-17T14:34:30;19.10;99.90
33269;DHT22;19640;50.944;5.260;2022-10-17T14:36:57;19.20;99.90
33269;DHT22;19640;50.944;5.260;2022-10-17T14:39:24;19.30;99.90
33269;DHT22;19640;50.944;5.260;2022-10-17T14:41:51;19.30;99.90
33269;DHT22;19640;50.944;5.260;2022-10-17T14:44:23;19.20;99.90
33269;DHT22;19640;50.944;5.260;2022-10-17T14:46:58;19.30;99.90
33269;DHT22;19640;50.944;5.260;2022-10-17T14:49:38;19.20;99.90
33269;DHT22;19640;50.944;5.260;2022-10-17T14:54:48;19.00;99.90
33269;DHT22;19640;50.944;5.260;2022-10-17T14:57:28;19.00;99.90
33269;DHT22;19640;50.944;5.260;2022-10-17T14:59:55;19.10;99.90
33269;DHT22;19640;50.944;5.260;2022-10-17T15:02:26;19.10;99.90
33269;DHT22;19640;50.944;5.260;2022-10-17T15:04:52;19.00;99.90
33269;DHT22;19640;50.944;5.260;2022-10-17T15:07:18;19.00;99.90
33269;DHT22;19640;50.944;5.260;2022-10-17T15:09:48;19.10;99.90
33269;DHT22;19640;50.944;5.260;2022-10-17T15:12:20;18.90;99.90
33269;DHT22;19640;50.944;5.260;2022-10-17T15:14:46;19.00;99.90
33269;DHT22;19640;50.944;5.260;2022-10-17T15:17:27;19.20;99.90
33269;DHT22;19640;50.944;5.260;2022-10-17T15:19:54;19.10;99.90
33269;DHT22;19640;50.944;5.260;2022-10-17T15:22:20;19.00;99.90
33269;DHT22;19640;50.944;5.260;2022-10-17T15:24:47;19.10;99.90
33269;DHT22;19640;50.944;5.260;2022-10-17T15:27:18;19.00;99.90
33269;DHT22;19640;50.944;5.260;2022-10-17T15:29:44;19.10;99.90
33269;DHT22;19640;50.944;5.260;2022-10-17T15:32:10;19.00;99.90
33269;DHT22;19640;50.944;5.260;2022-10-17T15:34:36;19.00;99.90
33269;DHT22;19640;50.944;5.260;2022-10-17T15:37:03;19.00;99.90
33269;DHT22;19640;50.944;5.260;2022-10-17T15:39:29;18.90;99.90
33269;DHT22;19640;50.944;5.260;2022-10-17T15:41:54;18.90;99.90
33269;DHT22;19640;50.944;5.260;2022-10-17T15:44:21;19.00;99.90
33269;DHT22;19640;50.944;5.260;2022-10-17T15:46:46;19.00;99.90
33269;DHT22;19640;50.944;5.260;2022-10-17T15:49:15;18.90;99.90
33269;DHT22;19640;50.944;5.260;2022-10-17T15:51:42;18.90;99.90
33269;DHT22;19640;50.944;5.260;2022-10-17T15:54:08;18.70;99.90
33269;DHT22;19640;50.944;5.260;2022-10-17T15:56:39;18.80;99.90
33269;DHT22;19640;50.944;5.260;2022-10-17T15:59:14;18.80;99.90
33269;DHT22;19640;50.944;5.260;2022-10-17T16:01:41;18.90;99.90
33269;DHT22;19640;50.944;5.260;2022-10-17T16:04:10;18.80;99.90
33269;DHT22;19640;50.944;5.260;2022-10-17T16:06:37;18.60;99.90
33269;DHT22;19640;50.944;5.260;2022-10-17T16:09:03;18.60;99.90
33269;DHT22;19640;50.944;5.260;2022-10-17T16:11:38;18.60;99.90
33269;DHT22;19640;50.944;5.260;2022-10-17T16:14:06;18.60;99.90
33269;DHT22;19640;50.944;5.260;2022-10-17T16:16:32;18.60;99.90
33269;DHT22;19640;50.944;5.260;2022-10-17T16:18:57;18.70;99.90
33269;DHT22;19640;50.944;5.260;2022-10-17T16:21:26;18.60;99.90
33269;DHT22;19640;50.944;5.260;2022-10-17T16:23:52;18.60;99.90
33269;DHT22;19640;50.944;5.260;2022-10-17T16:26:19;18.50;99.90
33269;DHT22;19640;50.944;5.260;2022-10-17T16:28:45;18.50;99.90
33269;DHT22;19640;50.944;5.260;2022-10-17T16:31:23;18.60;99.90
33269;DHT22;19640;50.944;5.260;2022-10-17T16:33:52;18.70;99.90
33269;DHT22;19640;50.944;5.260;2022-10-17T16:36:18;18.70;99.90
33269;DHT22;19640;50.944;5.260;2022-10-17T16:38:45;18.70;99.90
33269;DHT22;19640;50.944;5.260;2022-10-17T16:41:23;18.60;99.90
33269;DHT22;19640;50.944;5.260;2022-10-17T16:43:50;18.40;99.90
33269;DHT22;19640;50.944;5.260;2022-10-17T16:46:16;18.40;99.90
33269;DHT22;19640;50.944;5.260;2022-10-17T16:48:43;18.40;99.90
33269;DHT22;19640;50.944;5.260;2022-10-17T16:51:10;18.20;99.90
33269;DHT22;19640;50.944;5.260;2022-10-17T16:53:36;18.20;99.90
33269;DHT22;19640;50.944;5.260;2022-10-17T16:56:05;18.30;99.90
33269;DHT22;19640;50.944;5.260;2022-10-17T16:58:31;18.10;99.90
33269;DHT22;19640;50.944;5.260;2022-10-17T17:01:02;18.20;99.90
33269;DHT22;19640;50.944;5.260;2022-10-17T17:03:28;18.10;99.90
33269;DHT22;19640;50.944;5.260;2022-10-17T17:05:54;17.90;99.90
33269;DHT22;19640;50.944;5.260;2022-10-17T17:08:20;17.90;99.90
33269;DHT22;19640;50.944;5.260;2022-10-17T17:10:46;17.80;99.90
33269;DHT22;19640;50.944;5.260;2022-10-17T17:13:14;17.80;99.90
33269;DHT22;19640;50.944;5.260;2022-10-17T17:15:40;17.80;99.90
33269;DHT22;19640;50.944;5.260;2022-10-17T17:18:05;17.80;99.90
33269;DHT22;19640;50.944;5.260;2022-10-17T17:20:32;17.70;99.90